sensor_id;sensor_type;location;lat;lon;timestamp;temperature;humidity
11454;DHT22;5783;55.174;61.310;2023-06-22T00:00:13;21.50;44.10
11454;DHT22;5783;55.174;61.310;2023-06-22T00:02:42;21.50;43.90
11454;DHT22;5783;55.174;61.310;2023-06-22T00:05:12;21.50;44.00
11454;DHT22;5783;55.174;61.310;2023-06-22T00:07:41;21.50;44.30
11454;DHT22;5783;55.174;61.310;2023-06-22T00:10:10;21.50;44.20
11454;DHT22;5783;55.174;61.310;2023-06-22T00:12:39;21.50;44.10
11454;DHT22;5783;55.174;61.310;2023-06-22T00:15:08;21.50;44.20
11454;DHT22;5783;55.174;61.310;2023-06-22T00:17:38;21.50;44.30
11454;DHT22;5783;55.174;61.310;2023-06-22T00:20:08;21.60;44.20
11454;DHT22;5783;55.174;61.310;2023-06-22T00:22:38;21.60;44.20
11454;DHT22;5783;55.174;61.310;2023-06-22T00:25:07;21.60;44.10
11454;DHT22;5783;55.174;61.310;2023-06-22T00:27:37;21.60;44.10
11454;DHT22;5783;55.174;61.310;2023-06-22T00:30:07;21.60;44.20
11454;DHT22;5783;55.174;61.310;2023-06-22T00:32:37;21.60;44.20
11454;DHT22;5783;55.174;61.310;2023-06-22T00:35:06;21.60;44.10
11454;DHT22;5783;55.174;61.310;2023-06-22T00:37:37;21.60;44.00
11454;DHT22;5783;55.174;61.310;2023-06-22T00:40:09;21.60;44.00
11454;DHT22;5783;55.174;61.310;2023-06-22T00:42:41;21.60;44.00
11454;DHT22;5783;55.174;61.310;2023-06-22T00:45:10;21.60;44.20
11454;DHT22;5783;55.174;61.310;2023-06-22T00:47:39;21.60;43.90
11454;DHT22;5783;55.174;61.310;2023-06-22T00:50:12;21.60;44.00
11454;DHT22;5783;55.174;61.310;2023-06-22T00:52:44;21.60;43.90
11454;DHT22;5783;55.174;61.310;2023-06-22T00:55:14;21.60;44.00
11454;DHT22;5783;55.174;61.310;2023-06-22T00:57:46;21.60;43.90
11454;DHT22;5783;55.174;61.310;2023-06-22T01:00:17;21.60;43.80
11454;DHT22;5783;55.174;61.310;2023-06-22T01:02:47;21.60;43.80
11454;DHT22;5783;55.174;61.310;2023-06-22T01:05:19;21.60;43.90
11454;DHT22;5783;55.174;61.310;2023-06-22T01:16:57;21.60;43.80
11454;DHT22;5783;55.174;61.310;2023-06-22T01:31:27;21.50;44.20
11454;DHT22;5783;55.174;61.310;2023-06-22T01:34:00;21.50;44.30
11454;DHT22;5783;55.174;61.310;2023-06-22T01:36:31;21.50;44.50
11454;DHT22;5783;55.174;61.310;2023-06-22T01:39:02;21.50;44.50
11454;DHT22;5783;55.174;61.310;2023-06-22T01:41:34;21.50;44.30
11454;DHT22;5783;55.174;61.310;2023-06-22T01:44:05;21.50;44.30
11454;DHT22;5783;55.174;61.310;2023-06-22T01:46:35;21.50;44.40
11454;DHT22;5783;55.174;61.310;2023-06-22T01:49:05;21.60;44.30
11454;DHT22;5783;55.174;61.310;2023-06-22T01:51:35;21.60;44.30
11454;DHT22;5783;55.174;61.310;2023-06-22T01:54:06;21.60;44.20
11454;DHT22;5783;55.174;61.310;2023-06-22T01:56:36;21.60;44.20
11454;DHT22;5783;55.174;61.310;2023-06-22T02:02:16;21.60;44.20
11454;DHT22;5783;55.174;61.310;2023-06-22T02:05:06;21.60;44.20
11454;DHT22;5783;55.174;61.310;2023-06-22T02:10:28;21.50;44.20
11454;DHT22;5783;55.174;61.310;2023-06-22T02:12:58;21.50;44.20
11454;DHT22;5783;55.174;61.310;2023-06-22T02:15:28;21.50;44.20
11454;DHT22;5783;55.174;61.310;2023-06-22T02:17:58;21.60;44.30
11454;DHT22;5783;55.174;61.310;2023-06-22T02:20:29;21.60;44.10
11454;DHT22;5783;55.174;61.310;2023-06-22T02:22:58;21.60;44.10
11454;DHT22;5783;55.174;61.310;2023-06-22T02:25:27;21.60;44.20
11454;DHT22;5783;55.174;61.310;2023-06-22T02:27:56;21.60;44.20
11454;DHT22;5783;55.174;61.310;2023-06-22T02:30:25;21.60;44.20
11454;DHT22;5783;55.174;61.310;2023-06-22T02:32:54;21.60;44.20
11454;DHT22;5783;55.174;61.310;2023-06-22T02:35:43;21.60;44.20
11454;DHT22;5783;55.174;61.310;2023-06-22T02:38:14;21.60;44.20
11454;DHT22;5783;55.174;61.310;2023-06-22T02:40:44;21.60;44.40
11454;DHT22;5783;55.174;61.310;2023-06-22T02:43:13;21.60;44.40
11454;DHT22;5783;55.174;61.310;2023-06-22T02:45:43;21.60;44.40
11454;DHT22;5783;55.174;61.310;2023-06-22T02:48:12;21.60;44.40
11454;DHT22;5783;55.174;61.310;2023-06-22T02:50:41;21.70;44.40
11454;DHT22;5783;55.174;61.310;2023-06-22T02:53:10;21.70;44.40
11454;DHT22;5783;55.174;61.310;2023-06-22T02:55:40;21.70;44.20
11454;DHT22;5783;55.174;61.310;2023-06-22T02:58:09;21.70;44.40
11454;DHT22;5783;55.174;61.310;2023-06-22T03:00:38;21.70;44.10
11454;DHT22;5783;55.174;61.310;2023-06-22T03:03:07;21.70;44.00
11454;DHT22;5783;55.174;61.310;2023-06-22T03:05:36;21.70;44.00
11454;DHT22;5783;55.174;61.310;2023-06-22T03:08:06;21.70;44.20
11454;DHT22;5783;55.174;61.310;2023-06-22T03:10:36;21.70;44.10
11454;DHT22;5783;55.174;61.310;2023-06-22T03:13:05;21.70;44.10
11454;DHT22;5783;55.174;61.310;2023-06-22T03:15:34;21.70;43.90
11454;DHT22;5783;55.174;61.310;2023-06-22T03:18:03;21.70;43.90
11454;DHT22;5783;55.174;61.310;2023-06-22T03:20:32;21.70;43.90
11454;DHT22;5783;55.174;61.310;2023-06-22T03:23:01;21.70;43.90
11454;DHT22;5783;55.174;61.310;2023-06-22T03:25:31;21.70;43.90
11454;DHT22;5783;55.174;61.310;2023-06-22T03:28:01;21.70;44.00
11454;DHT22;5783;55.174;61.310;2023-06-22T03:30:30;21.70;44.00
11454;DHT22;5783;55.174;61.310;2023-06-22T03:32:59;21.70;44.10
11454;DHT22;5783;55.174;61.310;2023-06-22T03:35:28;21.70;44.00
11454;DHT22;5783;55.174;61.310;2023-06-22T03:37:57;21.70;44.10
11454;DHT22;5783;55.174;61.310;2023-06-22T03:40:26;21.70;44.10
11454;DHT22;5783;55.174;61.310;2023-06-22T03:42:56;21.70;44.10
11454;DHT22;5783;55.174;61.310;2023-06-22T03:45:25;21.70;44.10
11454;DHT22;5783;55.174;61.310;2023-06-22T03:47:54;21.70;44.20
11454;DHT22;5783;55.174;61.310;2023-06-22T03:50:23;21.80;44.30
11454;DHT22;5783;55.174;61.310;2023-06-22T03:52:52;21.80;44.30
11454;DHT22;5783;55.174;61.310;2023-06-22T03:55:21;21.80;44.30
11454;DHT22;5783;55.174;61.310;2023-06-22T03:57:51;21.80;44.30
11454;DHT22;5783;55.174;61.310;2023-06-22T04:00:21;21.80;44.50
11454;DHT22;5783;55.174;61.310;2023-06-22T04:02:50;21.80;44.40
11454;DHT22;5783;55.174;61.310;2023-06-22T04:05:20;21.80;44.40
11454;DHT22;5783;55.174;61.310;2023-06-22T04:07:49;21.80;44.40
11454;DHT22;5783;55.174;61.310;2023-06-22T04:10:18;21.80;44.40
11454;DHT22;5783;55.174;61.310;2023-06-22T04:12:48;21.80;44.40
11454;DHT22;5783;55.174;61.310;2023-06-22T04:15:17;21.80;44.40
11454;DHT22;5783;55.174;61.310;2023-06-22T04:17:46;21.80;44.30
11454;DHT22;5783;55.174;61.310;2023-06-22T04:20:17;21.80;44.30
11454;DHT22;5783;55.174;61.310;2023-06-22T04:22:46;21.80;44.40
11454;DHT22;5783;55.174;61.310;2023-06-22T04:25:15;21.80;44.30
11454;DHT22;5783;55.174;61.310;2023-06-22T04:27:45;21.80;44.30
11454;DHT22;5783;55.174;61.310;2023-06-22T04:30:14;21.80;44.30
11454;DHT22;5783;55.174;61.310;2023-06-22T04:32:44;21.80;44.40
11454;DHT22;5783;55.174;61.310;2023-06-22T04:35:15;21.80;44.30
11454;DHT22;5783;55.174;61.310;2023-06-22T04:37:44;21.80;44.10
11454;DHT22;5783;55.174;61.310;2023-06-22T04:40:15;21.70;44.20
11454;DHT22;5783;55.174;61.310;2023-06-22T04:42:44;21.60;44.60
11454;DHT22;5783;55.174;61.310;2023-06-22T04:45:17;21.60;44.80
11454;DHT22;5783;55.174;61.310;2023-06-22T04:47:46;21.50;44.90
11454;DHT22;5783;55.174;61.310;2023-06-22T04:50:16;21.50;44.70
11454;DHT22;5783;55.174;61.310;2023-06-22T04:52:47;21.50;44.90
11454;DHT22;5783;55.174;61.310;2023-06-22T04:55:16;21.40;44.90
11454;DHT22;5783;55.174;61.310;2023-06-22T04:57:46;21.50;45.00
11454;DHT22;5783;55.174;61.310;2023-06-22T05:00:18;21.50;45.00
11454;DHT22;5783;55.174;61.310;2023-06-22T05:02:49;21.50;45.00
11454;DHT22;5783;55.174;61.310;2023-06-22T05:05:18;21.60;43.20
11454;DHT22;5783;55.174;61.310;2023-06-22T05:07:49;21.60;42.50
11454;DHT22;5783;55.174;61.310;2023-06-22T05:10:20;21.60;42.00
11454;DHT22;5783;55.174;61.310;2023-06-22T05:12:50;21.60;41.90
11454;DHT22;5783;55.174;61.310;2023-06-22T05:15:19;21.70;41.50
11454;DHT22;5783;55.174;61.310;2023-06-22T05:17:50;21.70;40.80
11454;DHT22;5783;55.174;61.310;2023-06-22T05:20:19;21.70;40.60
11454;DHT22;5783;55.174;61.310;2023-06-22T05:22:49;21.70;40.50
11454;DHT22;5783;55.174;61.310;2023-06-22T05:25:18;21.70;40.30
11454;DHT22;5783;55.174;61.310;2023-06-22T05:27:48;21.70;40.20
11454;DHT22;5783;55.174;61.310;2023-06-22T05:30:18;21.70;39.90
11454;DHT22;5783;55.174;61.310;2023-06-22T05:32:47;21.70;39.70
11454;DHT22;5783;55.174;61.310;2023-06-22T05:35:17;21.70;39.40
11454;DHT22;5783;55.174;61.310;2023-06-22T05:37:46;21.70;39.30
11454;DHT22;5783;55.174;61.310;2023-06-22T05:40:15;21.70;38.70
11454;DHT22;5783;55.174;61.310;2023-06-22T05:42:44;21.70;38.30
11454;DHT22;5783;55.174;61.310;2023-06-22T05:45:14;21.60;38.50
11454;DHT22;5783;55.174;61.310;2023-06-22T05:47:43;21.60;37.80
11454;DHT22;5783;55.174;61.310;2023-06-22T05:50:12;21.60;37.80
11454;DHT22;5783;55.174;61.310;2023-06-22T05:52:41;21.50;37.90
11454;DHT22;5783;55.174;61.310;2023-06-22T05:55:10;21.50;37.70
11454;DHT22;5783;55.174;61.310;2023-06-22T05:57:40;21.40;37.50
11454;DHT22;5783;55.174;61.310;2023-06-22T06:00:09;21.40;38.10
11454;DHT22;5783;55.174;61.310;2023-06-22T06:02:39;21.30;38.20
11454;DHT22;5783;55.174;61.310;2023-06-22T06:05:11;21.30;38.10
11454;DHT22;5783;55.174;61.310;2023-06-22T06:07:41;21.30;38.10
11454;DHT22;5783;55.174;61.310;2023-06-22T06:10:11;21.30;38.10
11454;DHT22;5783;55.174;61.310;2023-06-22T06:12:40;21.30;38.00
11454;DHT22;5783;55.174;61.310;2023-06-22T06:15:09;21.30;38.10
11454;DHT22;5783;55.174;61.310;2023-06-22T06:17:58;21.20;38.40
11454;DHT22;5783;55.174;61.310;2023-06-22T06:20:29;21.20;38.20
11454;DHT22;5783;55.174;61.310;2023-06-22T06:22:58;21.20;38.30
11454;DHT22;5783;55.174;61.310;2023-06-22T06:25:28;21.20;38.10
11454;DHT22;5783;55.174;61.310;2023-06-22T06:27:57;21.10;38.00
11454;DHT22;5783;55.174;61.310;2023-06-22T06:30:26;21.10;37.60
11454;DHT22;5783;55.174;61.310;2023-06-22T06:32:55;21.20;37.70
11454;DHT22;5783;55.174;61.310;2023-06-22T06:35:24;21.20;38.10
11454;DHT22;5783;55.174;61.310;2023-06-22T06:37:54;21.20;38.40
11454;DHT22;5783;55.174;61.310;2023-06-22T06:40:23;21.20;38.80
11454;DHT22;5783;55.174;61.310;2023-06-22T06:42:52;21.10;39.30
11454;DHT22;5783;55.174;61.310;2023-06-22T06:45:23;21.20;39.50
11454;DHT22;5783;55.174;61.310;2023-06-22T06:47:54;21.30;39.20
11454;DHT22;5783;55.174;61.310;2023-06-22T06:50:23;21.30;39.30
11454;DHT22;5783;55.174;61.310;2023-06-22T06:52:52;21.40;39.10
11454;DHT22;5783;55.174;61.310;2023-06-22T06:55:23;21.30;38.70
11454;DHT22;5783;55.174;61.310;2023-06-22T06:57:52;21.30;38.80
11454;DHT22;5783;55.174;61.310;2023-06-22T07:00:21;21.30;38.90
11454;DHT22;5783;55.174;61.310;2023-06-22T07:02:52;21.40;39.20
11454;DHT22;5783;55.174;61.310;2023-06-22T07:05:22;21.40;39.20
11454;DHT22;5783;55.174;61.310;2023-06-22T07:07:51;21.40;38.30
11454;DHT22;5783;55.174;61.310;2023-06-22T07:10:20;21.40;38.10
11454;DHT22;5783;55.174;61.310;2023-06-22T07:12:49;21.30;37.90
11454;DHT22;5783;55.174;61.310;2023-06-22T07:15:18;21.30;37.70
11454;DHT22;5783;55.174;61.310;2023-06-22T07:17:47;21.30;37.90
11454;DHT22;5783;55.174;61.310;2023-06-22T07:20:16;21.30;37.60
11454;DHT22;5783;55.174;61.310;2023-06-22T07:22:46;21.20;37.90
11454;DHT22;5783;55.174;61.310;2023-06-22T07:25:15;21.20;37.70
11454;DHT22;5783;55.174;61.310;2023-06-22T07:28:06;21.30;38.10
11454;DHT22;5783;55.174;61.310;2023-06-22T07:30:36;21.30;38.10
11454;DHT22;5783;55.174;61.310;2023-06-22T07:33:05;21.30;38.10
11454;DHT22;5783;55.174;61.310;2023-06-22T07:35:34;21.30;37.90
11454;DHT22;5783;55.174;61.310;2023-06-22T07:38:03;21.30;37.50
11454;DHT22;5783;55.174;61.310;2023-06-22T07:40:33;21.30;37.50
11454;DHT22;5783;55.174;61.310;2023-06-22T07:43:03;21.40;37.30
11454;DHT22;5783;55.174;61.310;2023-06-22T07:45:32;21.40;36.80
11454;DHT22;5783;55.174;61.310;2023-06-22T07:48:02;21.40;36.80
11454;DHT22;5783;55.174;61.310;2023-06-22T07:50:31;21.40;36.90
11454;DHT22;5783;55.174;61.310;2023-06-22T07:53:00;21.30;37.60
11454;DHT22;5783;55.174;61.310;2023-06-22T07:55:29;21.40;37.30
11454;DHT22;5783;55.174;61.310;2023-06-22T07:57:58;21.40;37.30
11454;DHT22;5783;55.174;61.310;2023-06-22T08:00:27;21.40;37.40
11454;DHT22;5783;55.174;61.310;2023-06-22T08:02:57;21.40;37.50
11454;DHT22;5783;55.174;61.310;2023-06-22T08:05:26;21.40;37.70
11454;DHT22;5783;55.174;61.310;2023-06-22T08:07:56;21.40;37.90
11454;DHT22;5783;55.174;61.310;2023-06-22T08:10:25;21.40;37.90
11454;DHT22;5783;55.174;61.310;2023-06-22T08:12:54;21.50;38.40
11454;DHT22;5783;55.174;61.310;2023-06-22T08:15:23;21.50;38.00
11454;DHT22;5783;55.174;61.310;2023-06-22T08:17:53;21.40;38.00
11454;DHT22;5783;55.174;61.310;2023-06-22T08:20:22;21.50;38.10
11454;DHT22;5783;55.174;61.310;2023-06-22T08:22:52;21.50;37.80
11454;DHT22;5783;55.174;61.310;2023-06-22T08:25:22;21.50;37.70
11454;DHT22;5783;55.174;61.310;2023-06-22T08:27:51;21.50;37.70
11454;DHT22;5783;55.174;61.310;2023-06-22T08:30:20;21.50;37.80
11454;DHT22;5783;55.174;61.310;2023-06-22T08:32:51;21.50;37.50
11454;DHT22;5783;55.174;61.310;2023-06-22T08:35:22;21.50;37.70
11454;DHT22;5783;55.174;61.310;2023-06-22T08:37:52;21.50;37.80
11454;DHT22;5783;55.174;61.310;2023-06-22T08:40:23;21.50;37.90
11454;DHT22;5783;55.174;61.310;2023-06-22T08:42:52;21.50;38.10
11454;DHT22;5783;55.174;61.310;2023-06-22T08:45:21;21.50;37.30
11454;DHT22;5783;55.174;61.310;2023-06-22T08:47:50;21.40;37.50
11454;DHT22;5783;55.174;61.310;2023-06-22T08:50:20;21.40;37.10
11454;DHT22;5783;55.174;61.310;2023-06-22T08:52:49;21.40;37.20
11454;DHT22;5783;55.174;61.310;2023-06-22T08:55:18;21.40;37.20
11454;DHT22;5783;55.174;61.310;2023-06-22T08:57:47;21.40;37.40
11454;DHT22;5783;55.174;61.310;2023-06-22T09:00:18;21.50;37.60
11454;DHT22;5783;55.174;61.310;2023-06-22T09:02:47;21.40;37.80
11454;DHT22;5783;55.174;61.310;2023-06-22T09:05:17;21.30;38.10
11454;DHT22;5783;55.174;61.310;2023-06-22T09:07:47;21.30;38.30
11454;DHT22;5783;55.174;61.310;2023-06-22T09:10:17;21.40;38.20
11454;DHT22;5783;55.174;61.310;2023-06-22T09:12:47;21.40;38.20
11454;DHT22;5783;55.174;61.310;2023-06-22T09:15:16;21.50;38.10
11454;DHT22;5783;55.174;61.310;2023-06-22T09:17:45;21.50;38.20
11454;DHT22;5783;55.174;61.310;2023-06-22T09:20:14;21.60;38.20
11454;DHT22;5783;55.174;61.310;2023-06-22T09:22:44;21.70;38.20
11454;DHT22;5783;55.174;61.310;2023-06-22T09:25:13;21.70;37.70
11454;DHT22;5783;55.174;61.310;2023-06-22T09:27:42;21.70;37.50
11454;DHT22;5783;55.174;61.310;2023-06-22T09:30:11;21.70;37.40
11454;DHT22;5783;55.174;61.310;2023-06-22T09:32:40;21.70;37.50
11454;DHT22;5783;55.174;61.310;2023-06-22T09:35:10;21.70;37.70
11454;DHT22;5783;55.174;61.310;2023-06-22T09:37:41;21.70;37.70
11454;DHT22;5783;55.174;61.310;2023-06-22T09:40:12;21.70;37.80
11454;DHT22;5783;55.174;61.310;2023-06-22T09:42:43;21.70;37.80
11454;DHT22;5783;55.174;61.310;2023-06-22T09:45:12;21.80;37.80
11454;DHT22;5783;55.174;61.310;2023-06-22T09:47:41;21.80;37.90
11454;DHT22;5783;55.174;61.310;2023-06-22T09:50:10;21.70;37.60
11454;DHT22;5783;55.174;61.310;2023-06-22T09:52:39;21.80;37.50
11454;DHT22;5783;55.174;61.310;2023-06-22T09:55:10;21.70;37.80
11454;DHT22;5783;55.174;61.310;2023-06-22T09:57:39;21.80;37.60
11454;DHT22;5783;55.174;61.310;2023-06-22T10:00:09;21.80;37.90
11454;DHT22;5783;55.174;61.310;2023-06-22T10:02:58;21.80;37.90
11454;DHT22;5783;55.174;61.310;2023-06-22T10:05:27;21.80;37.70
11454;DHT22;5783;55.174;61.310;2023-06-22T10:07:56;21.80;37.50
11454;DHT22;5783;55.174;61.310;2023-06-22T10:10:25;21.80;37.70
11454;DHT22;5783;55.174;61.310;2023-06-22T10:13:14;21.80;37.30
11454;DHT22;5783;55.174;61.310;2023-06-22T10:15:43;21.90;37.20
11454;DHT22;5783;55.174;61.310;2023-06-22T10:18:14;22.00;37.50
11454;DHT22;5783;55.174;61.310;2023-06-22T10:20:43;22.00;38.50
11454;DHT22;5783;55.174;61.310;2023-06-22T10:23:13;22.20;38.60
11454;DHT22;5783;55.174;61.310;2023-06-22T10:25:42;22.20;38.70
11454;DHT22;5783;55.174;61.310;2023-06-22T10:28:12;22.30;38.80
11454;DHT22;5783;55.174;61.310;2023-06-22T10:30:42;22.30;39.00
11454;DHT22;5783;55.174;61.310;2023-06-22T10:33:12;22.40;39.00
11454;DHT22;5783;55.174;61.310;2023-06-22T10:35:41;22.40;39.00
11454;DHT22;5783;55.174;61.310;2023-06-22T10:38:10;22.50;39.00
11454;DHT22;5783;55.174;61.310;2023-06-22T10:40:39;22.50;39.10
11454;DHT22;5783;55.174;61.310;2023-06-22T10:43:08;22.60;38.90
11454;DHT22;5783;55.174;61.310;2023-06-22T10:45:37;22.60;38.80
11454;DHT22;5783;55.174;61.310;2023-06-22T10:48:06;22.60;38.70
11454;DHT22;5783;55.174;61.310;2023-06-22T10:50:36;22.70;38.70
11454;DHT22;5783;55.174;61.310;2023-06-22T10:53:05;22.70;38.70
11454;DHT22;5783;55.174;61.310;2023-06-22T10:55:34;22.70;38.80
11454;DHT22;5783;55.174;61.310;2023-06-22T10:58:03;22.80;38.80
11454;DHT22;5783;55.174;61.310;2023-06-22T11:00:33;22.80;38.80
11454;DHT22;5783;55.174;61.310;2023-06-22T11:03:02;22.80;38.80
11454;DHT22;5783;55.174;61.310;2023-06-22T11:05:32;22.80;38.70
11454;DHT22;5783;55.174;61.310;2023-06-22T11:08:01;22.80;38.70
11454;DHT22;5783;55.174;61.310;2023-06-22T11:10:30;22.90;38.70
11454;DHT22;5783;55.174;61.310;2023-06-22T11:12:59;22.90;38.70
11454;DHT22;5783;55.174;61.310;2023-06-22T11:15:30;22.90;38.50
11454;DHT22;5783;55.174;61.310;2023-06-22T11:17:59;22.90;38.40
11454;DHT22;5783;55.174;61.310;2023-06-22T11:20:29;22.90;38.50
11454;DHT22;5783;55.174;61.310;2023-06-22T11:22:59;23.00;38.50
11454;DHT22;5783;55.174;61.310;2023-06-22T11:25:29;23.00;38.50
11454;DHT22;5783;55.174;61.310;2023-06-22T11:27:58;23.00;38.50
11454;DHT22;5783;55.174;61.310;2023-06-22T11:30:27;23.00;38.60
11454;DHT22;5783;55.174;61.310;2023-06-22T11:33:16;23.00;38.70
11454;DHT22;5783;55.174;61.310;2023-06-22T11:35:45;23.10;38.80
11454;DHT22;5783;55.174;61.310;2023-06-22T11:38:14;23.10;38.90
11454;DHT22;5783;55.174;61.310;2023-06-22T11:40:43;23.10;38.80
11454;DHT22;5783;55.174;61.310;2023-06-22T11:43:12;23.10;38.70
11454;DHT22;5783;55.174;61.310;2023-06-22T11:45:42;23.10;38.80
11454;DHT22;5783;55.174;61.310;2023-06-22T11:48:11;23.10;38.70
11454;DHT22;5783;55.174;61.310;2023-06-22T11:50:40;23.10;38.70
11454;DHT22;5783;55.174;61.310;2023-06-22T11:53:09;23.20;39.00
11454;DHT22;5783;55.174;61.310;2023-06-22T11:55:38;23.20;38.80
11454;DHT22;5783;55.174;61.310;2023-06-22T11:58:07;23.20;38.80
11454;DHT22;5783;55.174;61.310;2023-06-22T12:00:38;23.20;38.90
11454;DHT22;5783;55.174;61.310;2023-06-22T12:03:08;23.20;38.80
11454;DHT22;5783;55.174;61.310;2023-06-22T12:05:38;23.20;38.80
11454;DHT22;5783;55.174;61.310;2023-06-22T12:08:08;23.30;38.80
11454;DHT22;5783;55.174;61.310;2023-06-22T12:10:38;23.30;38.80
11454;DHT22;5783;55.174;61.310;2023-06-22T12:13:07;23.20;34.50
11454;DHT22;5783;55.174;61.310;2023-06-22T12:15:36;23.10;33.80
11454;DHT22;5783;55.174;61.310;2023-06-22T12:18:06;23.00;33.50
11454;DHT22;5783;55.174;61.310;2023-06-22T12:20:35;22.90;33.50
11454;DHT22;5783;55.174;61.310;2023-06-22T12:23:05;22.80;33.50
11454;DHT22;5783;55.174;61.310;2023-06-22T12:25:34;22.70;33.60
11454;DHT22;5783;55.174;61.310;2023-06-22T12:28:03;22.70;33.80
11454;DHT22;5783;55.174;61.310;2023-06-22T12:30:52;22.70;33.80
11454;DHT22;5783;55.174;61.310;2023-06-22T12:33:22;22.60;33.90
11454;DHT22;5783;55.174;61.310;2023-06-22T12:35:51;22.50;33.90
11454;DHT22;5783;55.174;61.310;2023-06-22T12:38:20;22.50;33.90
11454;DHT22;5783;55.174;61.310;2023-06-22T12:40:51;22.60;34.10
11454;DHT22;5783;55.174;61.310;2023-06-22T12:43:20;22.40;34.10
11454;DHT22;5783;55.174;61.310;2023-06-22T12:45:49;22.40;34.20
11454;DHT22;5783;55.174;61.310;2023-06-22T12:48:20;22.40;34.60
11454;DHT22;5783;55.174;61.310;2023-06-22T12:50:49;22.40;34.20
11454;DHT22;5783;55.174;61.310;2023-06-22T12:53:18;22.30;34.10
11454;DHT22;5783;55.174;61.310;2023-06-22T12:55:49;22.30;34.10
11454;DHT22;5783;55.174;61.310;2023-06-22T12:58:18;22.20;34.20
11454;DHT22;5783;55.174;61.310;2023-06-22T13:00:48;22.20;34.20
11454;DHT22;5783;55.174;61.310;2023-06-22T13:03:17;22.20;34.30
11454;DHT22;5783;55.174;61.310;2023-06-22T13:05:46;22.20;34.40
11454;DHT22;5783;55.174;61.310;2023-06-22T13:08:16;22.20;34.50
11454;DHT22;5783;55.174;61.310;2023-06-22T13:10:45;22.20;34.40
11454;DHT22;5783;55.174;61.310;2023-06-22T13:13:14;22.20;34.30
11454;DHT22;5783;55.174;61.310;2023-06-22T13:15:43;22.20;34.70
11454;DHT22;5783;55.174;61.310;2023-06-22T13:18:13;22.20;34.50
11454;DHT22;5783;55.174;61.310;2023-06-22T13:20:42;22.20;34.60
11454;DHT22;5783;55.174;61.310;2023-06-22T13:23:12;22.20;34.30
11454;DHT22;5783;55.174;61.310;2023-06-22T13:25:41;22.20;34.70
11454;DHT22;5783;55.174;61.310;2023-06-22T13:28:10;22.20;34.80
11454;DHT22;5783;55.174;61.310;2023-06-22T13:30:41;22.20;34.90
11454;DHT22;5783;55.174;61.310;2023-06-22T13:33:12;22.20;34.90
11454;DHT22;5783;55.174;61.310;2023-06-22T13:35:41;22.10;36.10
11454;DHT22;5783;55.174;61.310;2023-06-22T13:38:10;22.10;37.20
11454;DHT22;5783;55.174;61.310;2023-06-22T13:40:39;22.10;38.00
11454;DHT22;5783;55.174;61.310;2023-06-22T13:43:09;22.10;38.50
11454;DHT22;5783;55.174;61.310;2023-06-22T13:45:38;22.10;38.90
11454;DHT22;5783;55.174;61.310;2023-06-22T13:48:07;22.10;39.10
11454;DHT22;5783;55.174;61.310;2023-06-22T13:50:36;22.10;39.40
11454;DHT22;5783;55.174;61.310;2023-06-22T13:53:05;22.00;40.10
11454;DHT22;5783;55.174;61.310;2023-06-22T13:55:35;22.00;40.80
11454;DHT22;5783;55.174;61.310;2023-06-22T13:58:04;21.90;40.80
11454;DHT22;5783;55.174;61.310;2023-06-22T14:00:33;21.90;41.10
11454;DHT22;5783;55.174;61.310;2023-06-22T14:03:03;21.80;41.40
11454;DHT22;5783;55.174;61.310;2023-06-22T14:05:52;21.80;41.80
11454;DHT22;5783;55.174;61.310;2023-06-22T14:08:23;21.70;42.00
11454;DHT22;5783;55.174;61.310;2023-06-22T14:10:52;21.70;42.30
11454;DHT22;5783;55.174;61.310;2023-06-22T14:13:21;21.70;42.40
11454;DHT22;5783;55.174;61.310;2023-06-22T14:15:50;21.70;42.50
11454;DHT22;5783;55.174;61.310;2023-06-22T14:18:20;21.70;42.60
11454;DHT22;5783;55.174;61.310;2023-06-22T14:20:49;21.70;42.60
11454;DHT22;5783;55.174;61.310;2023-06-22T14:23:19;21.70;42.60
11454;DHT22;5783;55.174;61.310;2023-06-22T14:25:48;21.80;42.80
11454;DHT22;5783;55.174;61.310;2023-06-22T14:28:17;21.80;42.50
11454;DHT22;5783;55.174;61.310;2023-06-22T14:30:46;21.80;42.40
11454;DHT22;5783;55.174;61.310;2023-06-22T14:33:17;21.80;42.40
11454;DHT22;5783;55.174;61.310;2023-06-22T14:35:46;21.80;42.40
11454;DHT22;5783;55.174;61.310;2023-06-22T14:38:15;21.80;42.40
11454;DHT22;5783;55.174;61.310;2023-06-22T14:40:45;21.80;42.10
11454;DHT22;5783;55.174;61.310;2023-06-22T14:43:14;21.70;41.90
11454;DHT22;5783;55.174;61.310;2023-06-22T14:45:43;21.80;41.80
11454;DHT22;5783;55.174;61.310;2023-06-22T14:48:13;21.80;41.60
11454;DHT22;5783;55.174;61.310;2023-06-22T14:50:42;21.80;41.50
11454;DHT22;5783;55.174;61.310;2023-06-22T14:53:11;21.80;41.50
11454;DHT22;5783;55.174;61.310;2023-06-22T14:55:41;21.80;41.40
11454;DHT22;5783;55.174;61.310;2023-06-22T14:58:10;21.80;41.50
11454;DHT22;5783;55.174;61.310;2023-06-22T15:00:39;21.80;41.40
11454;DHT22;5783;55.174;61.310;2023-06-22T15:03:08;21.80;41.50
11454;DHT22;5783;55.174;61.310;2023-06-22T15:05:39;21.90;41.50
11454;DHT22;5783;55.174;61.310;2023-06-22T15:08:09;22.00;41.40
11454;DHT22;5783;55.174;61.310;2023-06-22T15:10:38;22.10;41.20
11454;DHT22;5783;55.174;61.310;2023-06-22T15:13:07;22.20;41.10
11454;DHT22;5783;55.174;61.310;2023-06-22T15:15:36;22.20;41.00
11454;DHT22;5783;55.174;61.310;2023-06-22T15:18:05;22.30;41.10
11454;DHT22;5783;55.174;61.310;2023-06-22T15:20:35;22.30;40.90
11454;DHT22;5783;55.174;61.310;2023-06-22T15:23:05;22.40;40.80
11454;DHT22;5783;55.174;61.310;2023-06-22T15:25:36;22.40;40.70
11454;DHT22;5783;55.174;61.310;2023-06-22T15:28:05;22.40;40.60
11454;DHT22;5783;55.174;61.310;2023-06-22T15:30:34;22.50;40.60
11454;DHT22;5783;55.174;61.310;2023-06-22T15:33:03;22.50;40.60
11454;DHT22;5783;55.174;61.310;2023-06-22T15:35:32;22.50;40.70
11454;DHT22;5783;55.174;61.310;2023-06-22T15:38:02;22.50;41.00
11454;DHT22;5783;55.174;61.310;2023-06-22T15:40:31;22.60;41.20
11454;DHT22;5783;55.174;61.310;2023-06-22T15:43:00;22.60;41.20
11454;DHT22;5783;55.174;61.310;2023-06-22T15:45:29;22.60;41.20
11454;DHT22;5783;55.174;61.310;2023-06-22T15:47:58;22.60;41.40
11454;DHT22;5783;55.174;61.310;2023-06-22T15:50:28;22.60;41.30
11454;DHT22;5783;55.174;61.310;2023-06-22T15:52:57;22.60;41.30
11454;DHT22;5783;55.174;61.310;2023-06-22T15:55:26;22.60;41.30
11454;DHT22;5783;55.174;61.310;2023-06-22T15:57:57;22.70;41.40
11454;DHT22;5783;55.174;61.310;2023-06-22T16:00:26;22.60;41.40
11454;DHT22;5783;55.174;61.310;2023-06-22T16:02:56;22.70;41.40
11454;DHT22;5783;55.174;61.310;2023-06-22T16:05:25;22.70;41.40
11454;DHT22;5783;55.174;61.310;2023-06-22T16:07:56;22.70;41.40
11454;DHT22;5783;55.174;61.310;2023-06-22T16:10:25;22.70;41.10
11454;DHT22;5783;55.174;61.310;2023-06-22T16:12:54;22.70;41.20